sensor_id;sensor_type;location;lat;lon;timestamp;temperature;humidity
73112;HTU21D;61301;51.956;5.876;2023-04-01T00:00:30;13.24;72.29
73112;HTU21D;61301;51.956;5.876;2023-04-01T00:02:57;13.44;71.70
73112;HTU21D;61301;51.956;5.876;2023-04-01T00:05:23;13.60;70.93
73112;HTU21D;61301;51.956;5.876;2023-04-01T00:07:52;13.84;70.31
73112;HTU21D;61301;51.956;5.876;2023-04-01T00:10:18;13.85;70.22
73112;HTU21D;61301;51.956;5.876;2023-04-01T00:12:44;13.70;70.83
73112;HTU21D;61301;51.956;5.876;2023-04-01T00:15:11;13.75;70.77
73112;HTU21D;61301;51.956;5.876;2023-04-01T00:17:37;13.76;70.73
73112;HTU21D;61301;51.956;5.876;2023-04-01T00:20:05;13.74;70.90
73112;HTU21D;61301;51.956;5.876;2023-04-01T00:22:31;13.71;70.99
73112;HTU21D;61301;51.956;5.876;2023-04-01T00:24:57;13.75;70.69
73112;HTU21D;61301;51.956;5.876;2023-04-01T00:27:23;13.65;71.10
73112;HTU21D;61301;51.956;5.876;2023-04-01T00:29:49;13.66;71.23
73112;HTU21D;61301;51.956;5.876;2023-04-01T00:32:15;13.74;70.92
73112;HTU21D;61301;51.956;5.876;2023-04-01T00:34:41;13.78;70.77
73112;HTU21D;61301;51.956;5.876;2023-04-01T00:37:08;13.76;70.78
73112;HTU21D;61301;51.956;5.876;2023-04-01T00:39:34;13.75;70.82
73112;HTU21D;61301;51.956;5.876;2023-04-01T00:42:02;13.86;70.40
73112;HTU21D;61301;51.956;5.876;2023-04-01T00:44:33;13.69;71.08
73112;HTU21D;61301;51.956;5.876;2023-04-01T00:47:00;13.79;70.81
73112;HTU21D;61301;51.956;5.876;2023-04-01T00:49:30;13.78;70.88
73112;HTU21D;61301;51.956;5.876;2023-04-01T00:51:59;13.79;70.84
73112;HTU21D;61301;51.956;5.876;2023-04-01T00:54:27;13.83;70.68
73112;HTU21D;61301;51.956;5.876;2023-04-01T00:56:58;13.63;71.48
73112;HTU21D;61301;51.956;5.876;2023-04-01T00:59:29;13.67;71.55
73112;HTU21D;61301;51.956;5.876;2023-04-01T01:01:57;13.79;70.95
73112;HTU21D;61301;51.956;5.876;2023-04-01T01:04:32;13.75;71.10
73112;HTU21D;61301;51.956;5.876;2023-04-01T01:09:47;13.83;70.83
73112;HTU21D;61301;51.956;5.876;2023-04-01T01:12:39;13.54;71.85
73112;HTU21D;61301;51.956;5.876;2023-04-01T01:15:26;13.73;71.26
73112;HTU21D;61301;51.956;5.876;2023-04-01T01:18:24;13.82;70.77
73112;HTU21D;61301;51.956;5.876;2023-04-01T01:23:43;13.50;72.10
73112;HTU21D;61301;51.956;5.876;2023-04-01T01:26:29;13.39;72.60
73112;HTU21D;61301;51.956;5.876;2023-04-01T01:37:29;13.50;72.47
73112;HTU21D;61301;51.956;5.876;2023-04-01T01:40:04;13.77;71.35
73112;HTU21D;61301;51.956;5.876;2023-04-01T01:42:36;13.79;71.42
73112;HTU21D;61301;51.956;5.876;2023-04-01T01:45:05;13.65;71.88
73112;HTU21D;61301;51.956;5.876;2023-04-01T01:47:33;13.61;72.06
73112;HTU21D;61301;51.956;5.876;2023-04-01T01:50:03;13.66;71.86
73112;HTU21D;61301;51.956;5.876;2023-04-01T01:52:30;13.93;71.01
73112;HTU21D;61301;51.956;5.876;2023-04-01T01:54:58;13.84;71.17
73112;HTU21D;61301;51.956;5.876;2023-04-01T01:57:34;13.81;71.37
73112;HTU21D;61301;51.956;5.876;2023-04-01T02:00:09;14.09;70.15
73112;HTU21D;61301;51.956;5.876;2023-04-01T02:02:45;14.14;69.78
73112;HTU21D;61301;51.956;5.876;2023-04-01T02:05:19;14.06;70.12
73112;HTU21D;61301;51.956;5.876;2023-04-01T02:07:49;13.96;70.53
73112;HTU21D;61301;51.956;5.876;2023-04-01T02:10:19;14.09;70.11
73112;HTU21D;61301;51.956;5.876;2023-04-01T02:12:48;14.01;70.15
73112;HTU21D;61301;51.956;5.876;2023-04-01T02:15:15;13.95;70.28
73112;HTU21D;61301;51.956;5.876;2023-04-01T02:17:44;13.92;70.25
73112;HTU21D;61301;51.956;5.876;2023-04-01T02:20:20;13.92;70.10
73112;HTU21D;61301;51.956;5.876;2023-04-01T02:22:55;13.95;69.94
73112;HTU21D;61301;51.956;5.876;2023-04-01T02:25:29;13.93;69.89
73112;HTU21D;61301;51.956;5.876;2023-04-01T02:27:57;13.86;70.00
73112;HTU21D;61301;51.956;5.876;2023-04-01T02:30:26;13.88;69.89
73112;HTU21D;61301;51.956;5.876;2023-04-01T02:32:53;13.83;69.98
73112;HTU21D;61301;51.956;5.876;2023-04-01T02:35:21;13.79;70.16
73112;HTU21D;61301;51.956;5.876;2023-04-01T02:37:49;13.77;70.27
73112;HTU21D;61301;51.956;5.876;2023-04-01T02:40:16;13.75;70.16
73112;HTU21D;61301;51.956;5.876;2023-04-01T02:42:43;13.83;69.93
73112;HTU21D;61301;51.956;5.876;2023-04-01T02:45:10;13.83;69.96
73112;HTU21D;61301;51.956;5.876;2023-04-01T02:47:36;13.82;69.94
73112;HTU21D;61301;51.956;5.876;2023-04-01T02:50:03;13.80;70.07
73112;HTU21D;61301;51.956;5.876;2023-04-01T02:52:29;13.78;70.21
73112;HTU21D;61301;51.956;5.876;2023-04-01T02:54:59;13.80;70.16
73112;HTU21D;61301;51.956;5.876;2023-04-01T02:57:25;13.66;70.64
73112;HTU21D;61301;51.956;5.876;2023-04-01T02:59:51;13.59;70.82
73112;HTU21D;61301;51.956;5.876;2023-04-01T03:02:18;13.61;70.74
73112;HTU21D;61301;51.956;5.876;2023-04-01T03:04:44;13.52;70.93
73112;HTU21D;61301;51.956;5.876;2023-04-01T03:07:10;13.50;71.07
73112;HTU21D;61301;51.956;5.876;2023-04-01T03:09:37;13.41;71.35
73112;HTU21D;61301;51.956;5.876;2023-04-01T03:12:03;13.40;71.35
73112;HTU21D;61301;51.956;5.876;2023-04-01T03:14:33;13.40;71.34
73112;HTU21D;61301;51.956;5.876;2023-04-01T03:17:02;13.41;71.38
73112;HTU21D;61301;51.956;5.876;2023-04-01T03:19:31;13.41;71.45
73112;HTU21D;61301;51.956;5.876;2023-04-01T03:21:58;13.35;71.52
73112;HTU21D;61301;51.956;5.876;2023-04-01T03:24:24;13.33;71.51
73112;HTU21D;61301;51.956;5.876;2023-04-01T03:26:50;13.50;70.88
73112;HTU21D;61301;51.956;5.876;2023-04-01T03:29:16;13.51;70.69
73112;HTU21D;61301;51.956;5.876;2023-04-01T03:31:46;13.50;70.88
73112;HTU21D;61301;51.956;5.876;2023-04-01T03:34:12;13.43;70.97
73112;HTU21D;61301;51.956;5.876;2023-04-01T03:36:38;13.51;70.81
73112;HTU21D;61301;51.956;5.876;2023-04-01T03:39:04;13.34;71.29
73112;HTU21D;61301;51.956;5.876;2023-04-01T03:41:39;13.39;71.06
73112;HTU21D;61301;51.956;5.876;2023-04-01T03:44:05;13.43;71.09
73112;HTU21D;61301;51.956;5.876;2023-04-01T03:46:32;13.39;71.13
73112;HTU21D;61301;51.956;5.876;2023-04-01T03:48:58;13.41;71.10
73112;HTU21D;61301;51.956;5.876;2023-04-01T03:51:24;13.47;70.91
73112;HTU21D;61301;51.956;5.876;2023-04-01T03:53:51;13.44;70.93
73112;HTU21D;61301;51.956;5.876;2023-04-01T03:56:18;13.46;70.75
73112;HTU21D;61301;51.956;5.876;2023-04-01T03:58:44;13.46;70.71
73112;HTU21D;61301;51.956;5.876;2023-04-01T04:01:16;13.38;70.85
73112;HTU21D;61301;51.956;5.876;2023-04-01T04:03:43;13.45;70.66
73112;HTU21D;61301;51.956;5.876;2023-04-01T04:06:12;13.43;70.87
73112;HTU21D;61301;51.956;5.876;2023-04-01T04:08:38;13.31;71.04
73112;HTU21D;61301;51.956;5.876;2023-04-01T04:11:04;13.35;71.03
73112;HTU21D;61301;51.956;5.876;2023-04-01T04:13:31;13.26;71.19
73112;HTU21D;61301;51.956;5.876;2023-04-01T04:16:00;13.27;71.20
73112;HTU21D;61301;51.956;5.876;2023-04-01T04:18:27;13.27;71.16
73112;HTU21D;61301;51.956;5.876;2023-04-01T04:20:53;13.22;71.37
73112;HTU21D;61301;51.956;5.876;2023-04-01T04:23:20;13.20;71.36
73112;HTU21D;61301;51.956;5.876;2023-04-01T04:25:58;13.20;71.38
73112;HTU21D;61301;51.956;5.876;2023-04-01T04:28:26;13.19;71.35
73112;HTU21D;61301;51.956;5.876;2023-04-01T04:30:54;13.29;71.11
73112;HTU21D;61301;51.956;5.876;2023-04-01T04:33:21;13.29;71.11
73112;HTU21D;61301;51.956;5.876;2023-04-01T04:35:47;13.27;71.13
73112;HTU21D;61301;51.956;5.876;2023-04-01T04:38:14;13.21;71.38
73112;HTU21D;61301;51.956;5.876;2023-04-01T04:40:41;13.39;70.87
73112;HTU21D;61301;51.956;5.876;2023-04-01T04:43:11;13.23;71.30
73112;HTU21D;61301;51.956;5.876;2023-04-01T04:45:37;13.29;71.13
73112;HTU21D;61301;51.956;5.876;2023-04-01T04:48:03;13.36;71.03
73112;HTU21D;61301;51.956;5.876;2023-04-01T04:50:30;13.43;70.73
73112;HTU21D;61301;51.956;5.876;2023-04-01T04:53:00;13.40;70.75
73112;HTU21D;61301;51.956;5.876;2023-04-01T04:55:26;13.31;71.14
73112;HTU21D;61301;51.956;5.876;2023-04-01T04:58:13;13.29;71.19
73112;HTU21D;61301;51.956;5.876;2023-04-01T05:00:41;13.24;71.45
73112;HTU21D;61301;51.956;5.876;2023-04-01T05:03:16;13.29;71.29
73112;HTU21D;61301;51.956;5.876;2023-04-01T05:05:49;13.32;71.20
73112;HTU21D;61301;51.956;5.876;2023-04-01T05:08:15;13.32;71.26
73112;HTU21D;61301;51.956;5.876;2023-04-01T05:10:41;13.32;71.32
73112;HTU21D;61301;51.956;5.876;2023-04-01T05:13:07;13.32;71.32
73112;HTU21D;61301;51.956;5.876;2023-04-01T05:15:35;13.35;71.32
73112;HTU21D;61301;51.956;5.876;2023-04-01T05:18:01;13.33;71.44
73112;HTU21D;61301;51.956;5.876;2023-04-01T05:20:27;13.43;71.16
73112;HTU21D;61301;51.956;5.876;2023-04-01T05:22:57;13.33;71.53
73112;HTU21D;61301;51.956;5.876;2023-04-01T05:25:24;13.30;71.74
73112;HTU21D;61301;51.956;5.876;2023-04-01T05:27:51;13.33;71.71
73112;HTU21D;61301;51.956;5.876;2023-04-01T05:30:17;13.51;71.11
73112;HTU21D;61301;51.956;5.876;2023-04-01T05:33:05;13.55;71.03
73112;HTU21D;61301;51.956;5.876;2023-04-01T05:35:32;13.49;71.29
73112;HTU21D;61301;51.956;5.876;2023-04-01T05:37:58;13.63;70.93
73112;HTU21D;61301;51.956;5.876;2023-04-01T05:40:24;13.63;70.98
73112;HTU21D;61301;51.956;5.876;2023-04-01T05:42:50;13.91;70.13
73112;HTU21D;61301;51.956;5.876;2023-04-01T05:45:17;13.94;69.99
73112;HTU21D;61301;51.956;5.876;2023-04-01T05:48:03;14.01;69.89
73112;HTU21D;61301;51.956;5.876;2023-04-01T05:50:36;14.03;69.85
73112;HTU21D;61301;51.956;5.876;2023-04-01T05:53:03;13.94;70.21
73112;HTU21D;61301;51.956;5.876;2023-04-01T05:55:29;13.98;70.25
73112;HTU21D;61301;51.956;5.876;2023-04-01T05:57:55;13.94;70.36
73112;HTU21D;61301;51.956;5.876;2023-04-01T06:00:21;13.93;70.42
73112;HTU21D;61301;51.956;5.876;2023-04-01T06:02:48;14.01;70.11
73112;HTU21D;61301;51.956;5.876;2023-04-01T06:05:18;14.11;69.43
73112;HTU21D;61301;51.956;5.876;2023-04-01T06:07:45;14.10;69.38
73112;HTU21D;61301;51.956;5.876;2023-04-01T06:10:18;14.22;69.11
73112;HTU21D;61301;51.956;5.876;2023-04-01T06:12:49;14.32;68.85
73112;HTU21D;61301;51.956;5.876;2023-04-01T06:15:26;14.18;69.00
73112;HTU21D;61301;51.956;5.876;2023-04-01T06:18:01;14.28;68.45
73112;HTU21D;61301;51.956;5.876;2023-04-01T06:23:36;14.44;68.05
73112;HTU21D;61301;51.956;5.876;2023-04-01T06:26:39;14.55;67.97
73112;HTU21D;61301;51.956;5.876;2023-04-01T06:31:59;14.47;68.39
73112;HTU21D;61301;51.956;5.876;2023-04-01T06:45:37;14.34;68.55
73112;HTU21D;61301;51.956;5.876;2023-04-01T06:48:48;14.28;68.78
73112;HTU21D;61301;51.956;5.876;2023-04-01T06:58:27;14.63;67.85
73112;HTU21D;61301;51.956;5.876;2023-04-01T07:01:00;14.70;67.71
73112;HTU21D;61301;51.956;5.876;2023-04-01T07:03:38;14.71;67.69
73112;HTU21D;61301;51.956;5.876;2023-04-01T07:06:13;14.70;67.85
73112;HTU21D;61301;51.956;5.876;2023-04-01T07:08:49;14.71;67.80
73112;HTU21D;61301;51.956;5.876;2023-04-01T07:11:25;14.79;67.77
73112;HTU21D;61301;51.956;5.876;2023-04-01T07:16:51;14.85;67.59
73112;HTU21D;61301;51.956;5.876;2023-04-01T07:19:20;14.92;67.44
73112;HTU21D;61301;51.956;5.876;2023-04-01T07:22:05;14.84;67.60
73112;HTU21D;61301;51.956;5.876;2023-04-01T07:24:55;14.87;67.61
73112;HTU21D;61301;51.956;5.876;2023-04-01T07:27:23;14.88;67.56
73112;HTU21D;61301;51.956;5.876;2023-04-01T07:29:51;14.89;67.64
73112;HTU21D;61301;51.956;5.876;2023-04-01T07:46:39;14.70;68.41
73112;HTU21D;61301;51.956;5.876;2023-04-01T07:49:29;14.69;68.56
73112;HTU21D;61301;51.956;5.876;2023-04-01T07:54:56;14.69;68.65
73112;HTU21D;61301;51.956;5.876;2023-04-01T07:57:49;14.82;68.30
73112;HTU21D;61301;51.956;5.876;2023-04-01T08:00:21;14.64;68.67
73112;HTU21D;61301;51.956;5.876;2023-04-01T08:03:17;14.77;68.49
73112;HTU21D;61301;51.956;5.876;2023-04-01T08:06:04;14.85;68.39
73112;HTU21D;61301;51.956;5.876;2023-04-01T08:11:36;14.91;68.30
73112;HTU21D;61301;51.956;5.876;2023-04-01T08:20:27;14.99;68.35
73112;HTU21D;61301;51.956;5.876;2023-04-01T08:26:12;15.12;68.05
73112;HTU21D;61301;51.956;5.876;2023-04-01T08:28:46;15.12;67.91
73112;HTU21D;61301;51.956;5.876;2023-04-01T08:31:43;15.19;67.48
73112;HTU21D;61301;51.956;5.876;2023-04-01T08:34:33;15.09;67.28
73112;HTU21D;61301;51.956;5.876;2023-04-01T08:37:04;15.03;67.69
73112;HTU21D;61301;51.956;5.876;2023-04-01T08:39:38;15.07;67.50
73112;HTU21D;61301;51.956;5.876;2023-04-01T08:48:33;15.15;67.17
73112;HTU21D;61301;51.956;5.876;2023-04-01T08:59:27;15.22;66.98
73112;HTU21D;61301;51.956;5.876;2023-04-01T09:05:26;15.19;67.20
73112;HTU21D;61301;51.956;5.876;2023-04-01T09:08:21;15.15;67.55
73112;HTU21D;61301;51.956;5.876;2023-04-01T09:11:03;15.23;67.51
73112;HTU21D;61301;51.956;5.876;2023-04-01T09:19:55;15.56;66.81
73112;HTU21D;61301;51.956;5.876;2023-04-01T09:25:56;15.46;66.56
73112;HTU21D;61301;51.956;5.876;2023-04-01T09:28:34;15.46;66.50
73112;HTU21D;61301;51.956;5.876;2023-04-01T09:31:17;15.57;66.59
73112;HTU21D;61301;51.956;5.876;2023-04-01T09:39:49;15.43;66.59
73112;HTU21D;61301;51.956;5.876;2023-04-01T09:51:24;15.65;66.21
73112;HTU21D;61301;51.956;5.876;2023-04-01T10:39:17;15.42;66.75
73112;HTU21D;61301;51.956;5.876;2023-04-01T10:45:48;15.16;67.65
73112;HTU21D;61301;51.956;5.876;2023-04-01T10:54:30;15.19;68.23
73112;HTU21D;61301;51.956;5.876;2023-04-01T11:08:04;15.71;67.22
73112;HTU21D;61301;51.956;5.876;2023-04-01T11:24:17;16.00;65.77
73112;HTU21D;61301;51.956;5.876;2023-04-01T11:44:26;15.97;65.58
73112;HTU21D;61301;51.956;5.876;2023-04-01T11:47:58;15.98;65.65
73112;HTU21D;61301;51.956;5.876;2023-04-01T11:56:16;16.01;65.27
73112;HTU21D;61301;51.956;5.876;2023-04-01T12:01:29;15.80;65.38
73112;HTU21D;61301;51.956;5.876;2023-04-01T12:09:49;15.65;66.48
73112;HTU21D;61301;51.956;5.876;2023-04-01T12:12:36;15.76;66.26
73112;HTU21D;61301;51.956;5.876;2023-04-01T12:20:40;15.70;66.36
73112;HTU21D;61301;51.956;5.876;2023-04-01T12:39:07;15.77;66.06
73112;HTU21D;61301;51.956;5.876;2023-04-01T12:41:59;15.74;65.77
73112;HTU21D;61301;51.956;5.876;2023-04-01T12:47:23;15.69;66.05
73112;HTU21D;61301;51.956;5.876;2023-04-01T12:55:29;15.41;66.83
73112;HTU21D;61301;51.956;5.876;2023-04-01T12:58:42;15.37;67.10
73112;HTU21D;61301;51.956;5.876;2023-04-01T13:06:56;15.37;67.65
73112;HTU21D;61301;51.956;5.876;2023-04-01T13:09:53;15.32;67.84
73112;HTU21D;61301;51.956;5.876;2023-04-01T13:15:36;15.39;67.89
73112;HTU21D;61301;51.956;5.876;2023-04-01T13:18:11;15.48;67.73
73112;HTU21D;61301;51.956;5.876;2023-04-01T13:20:51;15.56;67.59
73112;HTU21D;61301;51.956;5.876;2023-04-01T13:26:09;15.65;67.50
73112;HTU21D;61301;51.956;5.876;2023-04-01T13:29:14;15.76;67.17
73112;HTU21D;61301;51.956;5.876;2023-04-01T13:40:36;16.10;66.62
73112;HTU21D;61301;51.956;5.876;2023-04-01T13:43:25;16.27;66.37
73112;HTU21D;61301;51.956;5.876;2023-04-01T13:57:47;16.45;65.78
73112;HTU21D;61301;51.956;5.876;2023-04-01T14:06:19;16.51;65.64
73112;HTU21D;61301;51.956;5.876;2023-04-01T14:14:31;16.52;65.78
73112;HTU21D;61301;51.956;5.876;2023-04-01T14:17:19;16.55;65.89
73112;HTU21D;61301;51.956;5.876;2023-04-01T14:22:41;16.62;65.74
73112;HTU21D;61301;51.956;5.876;2023-04-01T14:25:33;16.62;65.74
73112;HTU21D;61301;51.956;5.876;2023-04-01T14:31:15;16.64;65.72
73112;HTU21D;61301;51.956;5.876;2023-04-01T14:48:30;16.64;65.62
73112;HTU21D;61301;51.956;5.876;2023-04-01T14:51:04;16.64;65.70
73112;HTU21D;61301;51.956;5.876;2023-04-01T14:53:38;16.69;65.68
73112;HTU21D;61301;51.956;5.876;2023-04-01T14:56:08;16.72;65.61
73112;HTU21D;61301;51.956;5.876;2023-04-01T14:58:50;16.81;65.45
73112;HTU21D;61301;51.956;5.876;2023-04-01T15:04:43;16.82;65.43
73112;HTU21D;61301;51.956;5.876;2023-04-01T15:07:19;16.81;65.13
73112;HTU21D;61301;51.956;5.876;2023-04-01T15:12:46;16.80;65.18
73112;HTU21D;61301;51.956;5.876;2023-04-01T15:15:45;16.74;65.13
73112;HTU21D;61301;51.956;5.876;2023-04-01T15:18:21;16.70;65.22
73112;HTU21D;61301;51.956;5.876;2023-04-01T15:29:21;16.67;65.05
73112;HTU21D;61301;51.956;5.876;2023-04-01T15:47:28;16.56;64.82
73112;HTU21D;61301;51.956;5.876;2023-04-01T15:55:48;16.31;64.47
73112;HTU21D;61301;51.956;5.876;2023-04-01T15:58:22;16.24;64.79
73112;HTU21D;61301;51.956;5.876;2023-04-01T16:14:55;16.05;64.82
73112;HTU21D;61301;51.956;5.876;2023-04-01T16:20:44;16.02;64.82
73112;HTU21D;61301;51.956;5.876;2023-04-01T16:25:53;15.96;65.01
73112;HTU21D;61301;51.956;5.876;2023-04-01T16:28:50;15.98;64.97
73112;HTU21D;61301;51.956;5.876;2023-04-01T16:31:37;16.00;64.92
73112;HTU21D;61301;51.956;5.876;2023-04-01T16:34:33;16.01;64.85
73112;HTU21D;61301;51.956;5.876;2023-04-01T16:37:21;15.99;64.69
73112;HTU21D;61301;51.956;5.876;2023-04-01T16:42:51;15.91;64.95
73112;HTU21D;61301;51.956;5.876;2023-04-01T16:48:28;15.85;64.77
73112;HTU21D;61301;51.956;5.876;2023-04-01T16:51:10;15.73;64.90
73112;HTU21D;61301;51.956;5.876;2023-04-01T16:53:48;15.70;65.07
73112;HTU21D;61301;51.956;5.876;2023-04-01T16:56:22;15.62;65.10
73112;HTU21D;61301;51.956;5.876;2023-04-01T17:01:40;15.46;65.17
73112;HTU21D;61301;51.956;5.876;2023-04-01T17:04:30;15.43;65.17
73112;HTU21D;61301;51.956;5.876;2023-04-01T17:12:44;15.25;65.46
73112;HTU21D;61301;51.956;5.876;2023-04-01T17:21:13;14.92;65.75
73112;HTU21D;61301;51.956;5.876;2023-04-01T17:23:49;14.84;65.61
73112;HTU21D;61301;51.956;5.876;2023-04-01T17:34:03;14.60;65.84
73112;HTU21D;61301;51.956;5.876;2023-04-01T17:39:56;14.53;65.66
73112;HTU21D;61301;51.956;5.876;2023-04-01T17:42:42;14.39;65.55
73112;HTU21D;61301;51.956;5.876;2023-04-01T18:04:37;14.12;66.46
73112;HTU21D;61301;51.956;5.876;2023-04-01T18:10:06;14.12;65.98
73112;HTU21D;61301;51.956;5.876;2023-04-01T18:18:37;13.82;66.29
73112;HTU21D;61301;51.956;5.876;2023-04-01T18:27:17;13.73;65.95
73112;HTU21D;61301;51.956;5.876;2023-04-01T18:29:51;13.63;66.30
73112;HTU21D;61301;51.956;5.876;2023-04-01T18:32:48;13.67;66.20
73112;HTU21D;61301;51.956;5.876;2023-04-01T18:35:21;13.60;66.66
73112;HTU21D;61301;51.956;5.876;2023-04-01T18:40:25;13.63;67.00
73112;HTU21D;61301;51.956;5.876;2023-04-01T18:45:57;13.64;66.29
73112;HTU21D;61301;51.956;5.876;2023-04-01T18:49:13;13.46;66.52
73112;HTU21D;61301;51.956;5.876;2023-04-01T18:51:58;13.44;66.88
73112;HTU21D;61301;51.956;5.876;2023-04-01T18:54:33;13.44;66.88
73112;HTU21D;61301;51.956;5.876;2023-04-01T18:57:13;13.48;66.79
73112;HTU21D;61301;51.956;5.876;2023-04-01T18:59:43;13.51;66.78
73112;HTU21D;61301;51.956;5.876;2023-04-01T19:05:08;13.54;66.36
73112;HTU21D;61301;51.956;5.876;2023-04-01T19:07:54;13.43;65.94
73112;HTU21D;61301;51.956;5.876;2023-04-01T19:21:36;13.12;66.94
73112;HTU21D;61301;51.956;5.876;2023-04-01T19:35:09;13.17;66.59
73112;HTU21D;61301;51.956;5.876;2023-04-01T19:37:47;13.08;66.29
73112;HTU21D;61301;51.956;5.876;2023-04-01T19:46:25;12.97;66.53
73112;HTU21D;61301;51.956;5.876;2023-04-01T19:49:34;12.96;66.79
73112;HTU21D;61301;51.956;5.876;2023-04-01T19:52:18;13.03;66.89
73112;HTU21D;61301;51.956;5.876;2023-04-01T19:54:51;13.01;66.80
73112;HTU21D;61301;51.956;5.876;2023-04-01T20:00:07;12.89;67.02
73112;HTU21D;61301;51.956;5.876;2023-04-01T20:03:04;12.92;66.78
73112;HTU21D;61301;51.956;5.876;2023-04-01T20:08:49;12.63;67.15
73112;HTU21D;61301;51.956;5.876;2023-04-01T20:19:13;12.63;66.89
73112;HTU21D;61301;51.956;5.876;2023-04-01T20:21:42;12.67;66.55
73112;HTU21D;61301;51.956;5.876;2023-04-01T20:26:41;12.56;66.36
73112;HTU21D;61301;51.956;5.876;2023-04-01T20:32:03;12.47;66.65
73112;HTU21D;61301;51.956;5.876;2023-04-01T20:39:46;12.42;66.69
73112;HTU21D;61301;51.956;5.876;2023-04-01T20:42:26;12.45;66.69
73112;HTU21D;61301;51.956;5.876;2023-04-01T20:48:11;12.38;65.98
73112;HTU21D;61301;51.956;5.876;2023-04-01T20:50:57;12.34;66.32
73112;HTU21D;61301;51.956;5.876;2023-04-01T20:53:29;12.33;66.62
73112;HTU21D;61301;51.956;5.876;2023-04-01T21:07:24;11.99;65.62
73112;HTU21D;61301;51.956;5.876;2023-04-01T21:18:26;12.05;66.24
73112;HTU21D;61301;51.956;5.876;2023-04-01T21:21:15;12.03;66.03
73112;HTU21D;61301;51.956;5.876;2023-04-01T21:29:39;11.98;65.85
73112;HTU21D;61301;51.956;5.876;2023-04-01T21:37:58;11.82;66.11
73112;HTU21D;61301;51.956;5.876;2023-04-01T21:40:35;11.79;66.24
73112;HTU21D;61301;51.956;5.876;2023-04-01T21:55:21;11.38;66.28
73112;HTU21D;61301;51.956;5.876;2023-04-01T22:06:54;11.28;66.15
73112;HTU21D;61301;51.956;5.876;2023-04-01T22:09:18;11.24;66.25
73112;HTU21D;61301;51.956;5.876;2023-04-01T22:12:01;11.20;66.29
73112;HTU21D;61301;51.956;5.876;2023-04-01T22:22:25;11.19;66.02
73112;HTU21D;61301;51.956;5.876;2023-04-01T22:25:23;11.16;66.13
73112;HTU21D;61301;51.956;5.876;2023-04-01T22:30:24;11.19;66.43
73112;HTU21D;61301;51.956;5.876;2023-04-01T22:41:48;11.07;66.17
73112;HTU21D;61301;51.956;5.876;2023-04-01T22:47:02;11.01;66.27
73112;HTU21D;61301;51.956;5.876;2023-04-01T22:49:38;11.00;66.46
73112;HTU21D;61301;51.956;5.876;2023-04-01T22:52:39;10.94;66.26
73112;HTU21D;61301;51.956;5.876;2023-04-01T22:55:29;10.95;66.59
73112;HTU21D;61301;51.956;5.876;2023-04-01T22:58:00;10.89;66.46
73112;HTU21D;61301;51.956;5.876;2023-04-01T23:00:44;10.86;66.48
73112;HTU21D;61301;51.956;5.876;2023-04-01T23:03:30;10.86;66.74
73112;HTU21D;61301;51.956;5.876;2023-04-01T23:06:01;10.80;66.41
73112;HTU21D;61301;51.956;5.876;2023-04-01T23:11:46;10.73;66.27
73112;HTU21D;61301;51.956;5.876;2023-04-01T23:17:02;10.67;66.38
73112;HTU21D;61301;51.956;5.876;2023-04-01T23:19:54;10.70;66.74
73112;HTU21D;61301;51.956;5.876;2023-04-01T23:22:35;10.71;66.66
73112;HTU21D;61301;51.956;5.876;2023-04-01T23:25:18;10.73;66.69
73112;HTU21D;61301;51.956;5.876;2023-04-01T23:30:54;10.67;66.53
73112;HTU21D;61301;51.956;5.876;2023-04-01T23:33:28;10.64;66.41
73112;HTU21D;61301;51.956;5.876;2023-04-01T23:36:13;10.62;66.33
73112;HTU21D;61301;51.956;5.876;2023-04-01T23:38:42;10.50;66.49
73112;HTU21D;61301;51.956;5.876;2023-04-01T23:41:17;10.54;66.61
73112;HTU21D;61301;51.956;5.876;2023-04-01T23:43:45;10.51;66.65
73112;HTU21D;61301;51.956;5.876;2023-04-01T23:46:12;10.52;66.63
73112;HTU21D;61301;51.956;5.876;2023-04-01T23:48:41;10.52;66.60
73112;HTU21D;61301;51.956;5.876;2023-04-01T23:51:28;10.53;66.78
73112;HTU21D;61301;51.956;5.876;2023-04-01T23:54:04;10.52;66.43
73112;HTU21D;61301;51.956;5.876;2023-04-01T23:56:54;10.50;66.35
73112;HTU21D;61301;51.956;5.876;2023-04-01T23:59:28;10.45;66.59
